createdAt,value
2023-03-22T00:02:30.590Z,100449.00
2023-03-22T00:05:01.524Z,100440.09
2023-03-22T00:07:31.964Z,100443.06
2023-03-22T00:10:05.605Z,100442.16
2023-03-22T00:12:36.090Z,100443.66
2023-03-22T00:15:07.632Z,100450.44
2023-03-22T00:17:38.416Z,100445.84
2023-03-22T00:20:10.377Z,100439.34
2023-03-22T00:22:41.474Z,100445.97
2023-03-22T00:25:14.920Z,100442.44
2023-03-22T00:27:45.667Z,100433.88
2023-03-22T00:30:17.192Z,100437.41
2023-03-22T00:32:48.295Z,100439.19
2023-03-22T00:35:20.058Z,100434.75
2023-03-22T00:37:53.409Z,100418.97
2023-03-22T00:40:26.641Z,100422.97
2023-03-22T00:42:57.219Z,100416.50
2023-03-22T00:45:28.581Z,100413.81
2023-03-22T00:47:59.112Z,100415.34
2023-03-22T00:50:29.868Z,100416.69
2023-03-22T00:53:00.537Z,100411.53
2023-03-22T00:55:33.689Z,100406.22
2023-03-22T00:58:04.280Z,100403.41
2023-03-22T01:00:35.166Z,100406.22
2023-03-22T01:03:07.727Z,100402.53
2023-03-22T01:05:39.831Z,100393.69
2023-03-22T01:08:12.965Z,100387.31
2023-03-22T01:10:47.595Z,100392.78
2023-03-22T01:13:18.693Z,100390.44
2023-03-22T01:15:52.643Z,100381.72
2023-03-22T01:18:23.588Z,100388.22
2023-03-22T01:20:54.507Z,100380.81
2023-03-22T01:23:25.290Z,100382.69
2023-03-22T01:25:58.659Z,100376.91
2023-03-22T01:28:29.327Z,100383.41
2023-03-22T01:31:04.510Z,100381.63
2023-03-22T01:33:35.145Z,100368.31
2023-03-22T01:36:05.642Z,100382.19
2023-03-22T01:38:38.258Z,100373.94
2023-03-22T01:41:11.543Z,100363.25
2023-03-22T01:43:44.787Z,100366.34
2023-03-22T01:46:15.316Z,100367.69
2023-03-22T01:48:48.764Z,100362.78
2023-03-22T01:51:23.041Z,100364.28
2023-03-22T01:54:15.772Z,100356.88
2023-03-22T01:56:49.824Z,100349.31
2023-03-22T01:59:28.159Z,100345.47
2023-03-22T02:02:20.397Z,100353.75
2023-03-22T02:05:00.569Z,100348.44
2023-03-22T02:07:33.306Z,100334.31
2023-03-22T02:10:06.714Z,100346.38
2023-03-22T02:13:05.743Z,100335.78
2023-03-22T02:16:00.961Z,100341.34
2023-03-22T02:19:00.689Z,100339.59
2023-03-22T02:22:14.458Z,100339.59
2023-03-22T02:25:17.683Z,100331.31
2023-03-22T02:28:11.380Z,100340.16
2023-03-22T02:31:09.626Z,100333.66
2023-03-22T02:34:10.823Z,100326.38
2023-03-22T02:37:05.576Z,100316.19
2023-03-22T02:39:47.391Z,100317.56
2023-03-22T02:42:33.965Z,100320.34
2023-03-22T02:45:11.184Z,100332.44
2023-03-22T02:47:44.896Z,100321.50
2023-03-22T02:50:23.231Z,100320.34
2023-03-22T02:52:58.385Z,100327.41
2023-03-22T02:55:35.217Z,100319.28
2023-03-22T02:58:12.946Z,100324.19
2023-03-22T03:00:44.778Z,100324.44
2023-03-22T03:03:18.465Z,100325.72
2023-03-22T03:05:53.482Z,100326.03
2023-03-22T03:08:26.598Z,100316.69
2023-03-22T03:11:00.052Z,100314.94
2023-03-22T03:13:33.860Z,100323.22
2023-03-22T03:16:07.984Z,100316.13
2023-03-22T03:18:48.479Z,100311.66
2023-03-22T03:21:32.688Z,100309.28
2023-03-22T03:24:16.150Z,100306.78
2023-03-22T03:26:57.232Z,100312.81
2023-03-22T03:29:36.283Z,100296.94
2023-03-22T03:32:12.445Z,100320.69
2023-03-22T03:34:49.587Z,100321.00
2023-03-22T03:37:24.976Z,100317.47
2023-03-22T03:40:01.618Z,100315.69
2023-03-22T03:42:35.457Z,100305.78
2023-03-22T03:45:11.434Z,100294.41
2023-03-22T03:47:42.764Z,100270.06
2023-03-22T03:50:15.962Z,100282.13
2023-03-22T03:52:46.513Z,100298.09
2023-03-22T03:55:17.598Z,100283.16
2023-03-22T03:57:50.685Z,100284.31
2023-03-22T04:00:22.943Z,100276.22
2023-03-22T04:03:12.072Z,100281.81
2023-03-22T04:06:04.025Z,100277.50
2023-03-22T04:08:39.241Z,100266.91
2023-03-22T04:11:11.013Z,100280.31
2023-03-22T04:13:45.204Z,100225.03
2023-03-22T04:16:20.344Z,100270.25
2023-03-22T04:18:50.940Z,100277.03
2023-03-22T04:21:21.837Z,100261.06
2023-03-22T04:24:00.947Z,100254.00
2023-03-22T04:26:35.549Z,100267.28
2023-03-22T04:29:20.157Z,100269.03
2023-03-22T04:31:55.536Z,100269.03
2023-03-22T04:34:39.206Z,100261.63
2023-03-22T04:37:15.177Z,100260.72
2023-03-22T04:39:54.574Z,100261.75
2023-03-22T04:42:51.512Z,100257.47
2023-03-22T04:45:35.115Z,100252.03
2023-03-22T04:48:11.307Z,100258.22
2023-03-22T04:50:43.124Z,100256.59
2023-03-22T04:53:13.702Z,100257.47
2023-03-22T04:55:45.813Z,100256.72
2023-03-22T04:58:17.262Z,100259.09
2023-03-22T05:00:53.371Z,100258.09
2023-03-22T05:03:25.704Z,100256.34
2023-03-22T05:06:01.525Z,100251.91
2023-03-22T05:08:41.362Z,100255.69
2023-03-22T05:11:14.974Z,100243.63
2023-03-22T05:13:49.113Z,100250.97
2023-03-22T05:16:22.389Z,100254.97
2023-03-22T05:18:55.518Z,100237.59
2023-03-22T05:21:29.749Z,100252.03
2023-03-22T05:24:03.037Z,100246.84
2023-03-22T05:26:33.696Z,100253.66
2023-03-22T05:29:04.662Z,100253.03
2023-03-22T05:31:56.223Z,100245.63
2023-03-22T05:34:36.148Z,100247.66
2023-03-22T05:37:21.330Z,100246.78
2023-03-22T05:39:58.554Z,100243.38
2023-03-22T05:42:38.142Z,100243.53
2023-03-22T05:45:20.897Z,100242.03
2023-03-22T05:48:03.291Z,100237.00
2023-03-22T05:50:35.426Z,100234.75
2023-03-22T05:53:06.562Z,100222.31
2023-03-22T05:56:00.801Z,100224.97
2023-03-22T05:58:36.691Z,100225.31
2023-03-22T06:01:11.159Z,100222.66
2023-03-22T06:03:53.814Z,100216.91
2023-03-22T06:06:31.434Z,100217.16
2023-03-22T06:09:16.767Z,100227.47
2023-03-22T06:11:48.660Z,100219.19
2023-03-22T06:14:20.108Z,100223.75
2023-03-22T06:17:09.498Z,100224.06
2023-03-22T06:19:43.128Z,100222.59
2023-03-22T06:22:16.039Z,100219.59
2023-03-22T06:24:47.466Z,100216.25
2023-03-22T06:27:26.219Z,100203.16
2023-03-22T06:29:57.955Z,100211.31
2023-03-22T06:32:29.765Z,100222.28
2023-03-22T06:35:03.843Z,100207.31
2023-03-22T06:37:34.705Z,100217.28
2023-03-22T06:40:05.622Z,100219.31
2023-03-22T06:42:37.145Z,100220.09
2023-03-22T06:45:14.736Z,100216.97
2023-03-22T06:47:47.596Z,100216.13
2023-03-22T06:50:44.079Z,100208.31
2023-03-22T06:53:17.887Z,100209.63
2023-03-22T06:55:48.455Z,100209.53
2023-03-22T06:58:27.120Z,100189.59
2023-03-22T07:00:58.688Z,100187.59
2023-03-22T07:03:30.888Z,100200.09
2023-03-22T07:06:12.899Z,100207.25
2023-03-22T07:08:46.867Z,100198.69
2023-03-22T07:11:21.319Z,100206.19
2023-03-22T07:13:59.630Z,100220.53
2023-03-22T07:16:36.885Z,100205.31
2023-03-22T07:19:09.712Z,100211.47
2023-03-22T07:21:43.663Z,100216.03
2023-03-22T07:24:16.115Z,100226.59
2023-03-22T07:26:48.351Z,100223.22
2023-03-22T07:29:23.330Z,100221.50
2023-03-22T07:31:54.005Z,100210.03
2023-03-22T07:34:31.706Z,100207.66
2023-03-22T07:37:09.620Z,100193.94
2023-03-22T07:39:40.360Z,100154.88
2023-03-22T07:42:10.950Z,100201.91
2023-03-22T07:45:00.262Z,100197.75
2023-03-22T07:47:40.811Z,100199.75
2023-03-22T07:50:34.079Z,100189.91
2023-03-22T07:53:11.958Z,100182.06
2023-03-22T07:55:43.074Z,100195.69
2023-03-22T07:58:13.805Z,100190.34
2023-03-22T08:00:44.922Z,100183.38
2023-03-22T08:03:34.862Z,100185.63
2023-03-22T08:06:16.623Z,100180.09
2023-03-22T08:08:50.137Z,100179.47
2023-03-22T08:11:20.829Z,100180.00
2023-03-22T08:13:51.548Z,100193.78
2023-03-22T08:16:25.180Z,100187.16
2023-03-22T08:18:55.866Z,100178.63
2023-03-22T08:21:29.563Z,100163.63
2023-03-22T08:24:03.876Z,100169.09
2023-03-22T08:26:51.413Z,100164.22
2023-03-22T08:29:37.746Z,100163.59
2023-03-22T08:32:10.698Z,100154.56
2023-03-22T08:34:42.425Z,100163.63
2023-03-22T08:37:14.935Z,100153.63
2023-03-22T08:39:50.462Z,100148.25
2023-03-22T08:42:28.334Z,100149.53
2023-03-22T08:44:58.777Z,100141.66
2023-03-22T08:47:32.601Z,100131.78
2023-03-22T08:50:07.753Z,100131.78
2023-03-22T08:52:47.598Z,100134.44
2023-03-22T08:55:35.410Z,100126.13
2023-03-22T08:58:16.487Z,100128.06
2023-03-22T09:01:07.028Z,100129.63
2023-03-22T09:03:44.888Z,100133.69
2023-03-22T09:06:16.336Z,100133.13
2023-03-22T09:08:48.876Z,100132.47
2023-03-22T09:11:23.507Z,100138.56
2023-03-22T09:13:54.397Z,100121.63
2023-03-22T09:16:25.131Z,100123.31
2023-03-22T09:18:56.011Z,100121.41
2023-03-22T09:21:26.604Z,100108.56
2023-03-22T09:24:09.367Z,100110.63
2023-03-22T09:26:46.993Z,100099.63
2023-03-22T09:29:21.082Z,100097.31
2023-03-22T09:31:51.765Z,100083.13
2023-03-22T09:34:27.482Z,100099.00
2023-03-22T09:37:02.346Z,100087.31
2023-03-22T09:39:39.163Z,100080.88
2023-03-22T09:42:29.509Z,100071.75
2023-03-22T09:45:06.171Z,100082.59
2023-03-22T09:47:45.822Z,100082.72
2023-03-22T09:50:21.894Z,100057.09
2023-03-22T09:52:53.663Z,100072.91
2023-03-22T09:55:32.647Z,100067.75
2023-03-22T09:58:15.698Z,100065.28
2023-03-22T10:00:50.512Z,100066.56
2023-03-22T10:03:33.742Z,100066.88
2023-03-22T10:06:07.885Z,100072.94
2023-03-22T10:08:47.527Z,100065.16
2023-03-22T10:11:27.276Z,100070.53
2023-03-22T10:14:07.694Z,100061.72
2023-03-22T10:16:38.791Z,100054.47
2023-03-22T10:19:20.137Z,100062.13
2023-03-22T10:21:53.324Z,100047.16
2023-03-22T10:24:29.844Z,100040.53
2023-03-22T10:27:00.952Z,100042.00
2023-03-22T10:29:43.647Z,100050.09
2023-03-22T10:32:19.356Z,100038.66
2023-03-22T10:34:49.968Z,100065.63
2023-03-22T10:37:24.938Z,100044.50
2023-03-22T10:39:58.592Z,100044.44
2023-03-22T10:42:32.665Z,100041.34
2023-03-22T10:45:10.167Z,100035.47
2023-03-22T10:47:44.337Z,100038.69
2023-03-22T10:50:21.772Z,100039.28
2023-03-22T10:52:59.542Z,100049.31
2023-03-22T10:55:30.493Z,100042.31
2023-03-22T10:58:13.897Z,100048.38
2023-03-22T11:00:49.946Z,100043.47
2023-03-22T11:03:30.930Z,100015.97
2023-03-22T11:06:17.072Z,100028.91
2023-03-22T11:08:49.796Z,100040.84
2023-03-22T11:11:24.140Z,100018.28
2023-03-22T11:13:58.537Z,100031.16
2023-03-22T11:16:33.175Z,100033.13
2023-03-22T11:19:05.256Z,100026.25
2023-03-22T11:21:37.779Z,100020.41
2023-03-22T11:24:11.082Z,100025.88
2023-03-22T11:26:41.985Z,100039.16
2023-03-22T11:29:19.698Z,100031.34
2023-03-22T11:31:59.231Z,100036.84
2023-03-22T11:34:31.729Z,100028.34
2023-03-22T11:37:03.712Z,100035.78
2023-03-22T11:39:34.359Z,100035.88
2023-03-22T11:42:08.729Z,100038.81
2023-03-22T11:44:39.320Z,100012.06
2023-03-22T11:47:16.242Z,100037.41
2023-03-22T11:49:50.768Z,100042.91
2023-03-22T11:52:26.137Z,100035.38
2023-03-22T11:54:59.003Z,100041.41
2023-03-22T11:57:33.428Z,100027.06
2023-03-22T12:00:11.983Z,100035.63
2023-03-22T12:02:51.592Z,100028.00
2023-03-22T12:05:27.270Z,100025.50
2023-03-22T12:08:02.583Z,100038.94
2023-03-22T12:10:36.910Z,100037.53
2023-03-22T12:13:14.176Z,100027.19
2023-03-22T12:15:49.631Z,100042.19
2023-03-22T12:18:30.283Z,100032.03
2023-03-22T12:21:02.520Z,100038.94
2023-03-22T12:23:35.468Z,100042.44
2023-03-22T12:26:09.569Z,100031.66
2023-03-22T12:28:45.322Z,100036.97
2023-03-22T12:31:21.552Z,100031.81
2023-03-22T12:33:56.800Z,100038.81
2023-03-22T12:36:38.118Z,100020.34
2023-03-22T12:39:10.817Z,100025.84
2023-03-22T12:41:48.447Z,100032.28
2023-03-22T12:44:27.009Z,100027.41
2023-03-22T12:47:01.200Z,100029.66
2023-03-22T12:49:40.638Z,100038.00
2023-03-22T12:52:20.653Z,100022.53
2023-03-22T12:54:56.830Z,100016.09
2023-03-22T12:57:28.049Z,100015.03
2023-03-22T13:00:10.525Z,100014.66
2023-03-22T13:02:41.471Z,100008.88
2023-03-22T13:05:21.378Z,100004.59
2023-03-22T13:07:59.002Z,100007.41
2023-03-22T13:11:08.690Z,99998.50
2023-03-22T13:13:57.496Z,99996.94
2023-03-22T13:16:50.701Z,99995.03
2023-03-22T13:19:37.711Z,99984.34
2023-03-22T13:22:32.044Z,99994.50
2023-03-22T13:25:30.685Z,99991.66
2023-03-22T13:28:03.659Z,99993.13
2023-03-22T13:30:38.056Z,99981.31
2023-03-22T13:33:21.150Z,99986.41
2023-03-22T13:35:55.074Z,99965.06
2023-03-22T13:38:30.650Z,99980.84
2023-03-22T13:41:06.399Z,99987.22
2023-03-22T13:43:39.904Z,99978.94
2023-03-22T13:46:29.249Z,99989.59
2023-03-22T13:49:20.810Z,99988.91
2023-03-22T13:51:52.333Z,99986.69
2023-03-22T13:54:33.542Z,99994.19
2023-03-22T13:57:04.468Z,99991.09
2023-03-22T14:00:15.018Z,99995.28
2023-03-22T14:02:48.577Z,99993.63
2023-03-22T14:05:23.472Z,100002.09
2023-03-22T14:07:57.471Z,100009.81
2023-03-22T14:10:40.382Z,100012.53
2023-03-22T14:13:20.275Z,100004.06
2023-03-22T14:15:54.697Z,100005.22
2023-03-22T14:18:27.282Z,100012.72
2023-03-22T14:21:05.569Z,100011.53
2023-03-22T14:52:24.643Z,100011.97
2023-03-22T14:54:59.530Z,100017.50
2023-03-22T14:57:36.938Z,100012.91
2023-03-22T15:00:16.577Z,100005.13
2023-03-22T15:02:51.045Z,100017.88
2023-03-22T15:05:24.833Z,100009.41
2023-03-22T15:07:58.579Z,100017.22
2023-03-22T15:10:32.570Z,100011.16
2023-03-22T15:13:09.143Z,99983.38
2023-03-22T15:15:42.412Z,100017.41
2023-03-22T15:18:17.412Z,100002.00
2023-03-22T15:20:51.324Z,100005.53
2023-03-22T15:23:24.421Z,99999.47
2023-03-22T15:25:58.934Z,99992.16
2023-03-22T15:28:37.002Z,99995.09
2023-03-22T15:31:07.965Z,99995.31
2023-03-22T15:33:41.285Z,99989.75
2023-03-22T15:36:21.031Z,99978.81
2023-03-22T15:38:53.959Z,99984.78
2023-03-22T15:41:32.036Z,99965.09
2023-03-22T15:44:08.359Z,99975.13
2023-03-22T15:46:58.548Z,99971.03
2023-03-22T15:49:37.944Z,99969.63
2023-03-22T15:52:17.324Z,99981.34
2023-03-22T15:54:51.881Z,99986.88
2023-03-22T15:57:25.338Z,99981.41
2023-03-22T16:00:11.640Z,99980.41
2023-03-22T16:02:56.024Z,99981.09
2023-03-22T16:05:26.782Z,99978.34
2023-03-22T16:07:58.972Z,99996.09
2023-03-22T16:10:30.684Z,99991.81
2023-03-22T16:13:01.803Z,99995.13
2023-03-22T16:15:37.436Z,100000.19
2023-03-22T16:18:09.364Z,99988.88
2023-03-22T16:20:40.728Z,100002.38
2023-03-22T16:23:16.820Z,100011.53
2023-03-22T16:25:47.754Z,100011.16
2023-03-22T16:28:18.501Z,100019.31
2023-03-22T16:30:52.067Z,100011.41
2023-03-22T16:33:22.994Z,100018.91
2023-03-22T16:35:56.194Z,100014.50
2023-03-22T16:38:28.567Z,100024.44
2023-03-22T16:40:59.403Z,100029.16
2023-03-22T16:43:30.107Z,100038.31
2023-03-22T16:46:04.350Z,100042.28
2023-03-22T16:48:36.505Z,100030.53
2023-03-22T16:51:07.750Z,100035.81
2023-03-22T16:53:40.631Z,100037.34
2023-03-22T16:56:16.498Z,100025.81
2023-03-22T16:58:47.187Z,100030.22
2023-03-22T17:01:24.728Z,100011.19
2023-03-22T17:03:55.692Z,100018.78
2023-03-22T17:06:26.728Z,100019.66
2023-03-22T17:08:57.651Z,100024.28
2023-03-22T17:11:30.104Z,100031.44
2023-03-22T17:14:01.348Z,100026.28
2023-03-22T17:16:36.975Z,100031.09
2023-03-22T17:19:07.803Z,100018.03
2023-03-22T17:21:38.906Z,100026.06
2023-03-22T17:24:09.649Z,100025.06
2023-03-22T17:26:40.348Z,100031.66
2023-03-22T17:29:42.654Z,100015.53
2023-03-22T17:35:12.438Z,100018.53
2023-03-22T17:37:43.299Z,100028.50
2023-03-22T17:40:49.654Z,100023.13
2023-03-22T17:43:09.168Z,100032.25
2023-03-22T17:46:24.721Z,100037.97
2023-03-22T17:48:34.165Z,100033.78
2023-03-22T17:51:06.349Z,100039.72
2023-03-22T17:54:16.692Z,100038.94
2023-03-22T17:57:01.160Z,100044.78
2023-03-22T17:59:18.154Z,100043.25
2023-03-22T18:01:48.810Z,100041.47
2023-03-22T18:04:22.347Z,100045.00
2023-03-22T18:06:53.104Z,100041.28
2023-03-22T18:09:23.839Z,100038.19
2023-03-22T18:11:56.771Z,100032.25
2023-03-22T18:14:35.727Z,100037.63
2023-03-22T18:17:09.942Z,100037.63
2023-03-22T18:20:07.327Z,100045.22
2023-03-22T18:22:35.319Z,100038.41
2023-03-22T18:25:06.760Z,100029.81
2023-03-22T18:27:47.424Z,100030.81
2023-03-22T18:30:21.016Z,100022.25
2023-03-22T18:33:05.572Z,100012.03
2023-03-22T18:35:39.284Z,100004.34
2023-03-22T18:38:09.853Z,100000.91
2023-03-22T18:41:12.789Z,100003.88
2023-03-22T18:43:31.276Z,99993.34
2023-03-22T18:46:17.043Z,99996.50
2023-03-22T18:48:49.758Z,99995.31
2023-03-22T18:51:23.115Z,99995.50
2023-03-22T18:53:55.368Z,99997.28
2023-03-22T18:56:26.129Z,99988.06
2023-03-22T18:58:59.565Z,99985.41
2023-03-22T19:01:33.236Z,99986.28
2023-03-22T19:04:03.992Z,99982.56
2023-03-22T19:06:38.729Z,99982.31
2023-03-22T19:09:09.723Z,99982.88
2023-03-22T19:11:40.662Z,99969.47
2023-03-22T19:14:58.233Z,99936.94
2023-03-22T19:17:10.617Z,99986.72
2023-03-22T19:19:44.964Z,99966.84
2023-03-22T19:22:19.428Z,99968.03
2023-03-22T19:24:54.569Z,100000.56
2023-03-22T19:27:29.096Z,99999.03
2023-03-22T19:30:06.571Z,99998.38
2023-03-22T19:32:37.635Z,99999.38
2023-03-22T19:35:09.925Z,99969.16
2023-03-22T19:37:44.646Z,99934.09
2023-03-22T19:42:50.611Z,99967.50
2023-03-22T19:45:21.915Z,99968.50
2023-03-22T19:48:03.818Z,99965.88
2023-03-22T19:50:36.225Z,99958.03
2023-03-22T19:53:40.121Z,99911.56
2023-03-22T19:56:00.766Z,99944.31
2023-03-22T19:58:31.712Z,99918.19
2023-03-22T20:01:09.983Z,99956.75
2023-03-22T20:03:47.997Z,99963.00
2023-03-22T20:06:19.464Z,99962.63
2023-03-22T20:08:54.128Z,99964.06
2023-03-22T20:11:34.919Z,99929.97
2023-03-22T20:14:13.550Z,99966.38
2023-03-22T20:16:44.410Z,99939.69
2023-03-22T20:19:15.182Z,99937.41
2023-03-22T20:21:46.409Z,99932.75
2023-03-22T20:24:20.199Z,99913.53
2023-03-22T20:26:51.105Z,99947.50
2023-03-22T20:29:22.289Z,99947.59
2023-03-22T20:31:55.045Z,99950.44
2023-03-22T20:34:25.972Z,99959.47
2023-03-22T20:36:56.970Z,99958.47
2023-03-22T20:39:30.420Z,99928.69
2023-03-22T20:42:01.128Z,99921.00
2023-03-22T20:44:32.196Z,99947.63
2023-03-22T20:47:04.275Z,99943.53
2023-03-22T20:49:35.237Z,99937.72
2023-03-22T20:52:07.661Z,99913.31
2023-03-22T20:54:40.993Z,99917.94
2023-03-22T20:57:11.889Z,99899.34
2023-03-22T20:59:42.721Z,99900.78
2023-03-22T21:02:16.039Z,99903.88
2023-03-22T21:04:47.167Z,99904.66
2023-03-22T21:07:17.929Z,99897.63
2023-03-22T21:09:53.869Z,99906.06
2023-03-22T21:12:24.641Z,99905.94
2023-03-22T21:14:55.380Z,99902.53
2023-03-22T21:17:28.201Z,99906.19
2023-03-22T21:19:58.902Z,99897.72
2023-03-22T21:22:30.863Z,99909.81
2023-03-22T21:25:04.103Z,99900.56
2023-03-22T21:27:35.052Z,99896.38
2023-03-22T21:30:06.145Z,99898.03
2023-03-22T21:32:37.277Z,99896.28
2023-03-22T21:35:09.519Z,99897.28
2023-03-22T21:37:40.086Z,99893.84
2023-03-22T21:40:14.868Z,99896.72
2023-03-22T21:42:46.813Z,99884.06
2023-03-22T21:45:17.537Z,99879.78
2023-03-22T21:47:53.941Z,99864.41
2023-03-22T21:50:26.950Z,99858.25
2023-03-22T21:52:58.824Z,99853.41
2023-03-22T21:55:33.122Z,99819.50
2023-03-22T21:58:03.938Z,99862.63
2023-03-22T22:00:35.120Z,99825.88
2023-03-22T22:03:05.652Z,99872.88
2023-03-22T22:05:37.104Z,99863.63
2023-03-22T22:08:08.606Z,99865.59
2023-03-22T22:10:41.972Z,99866.69
2023-03-22T22:13:12.979Z,99860.75
2023-03-22T22:15:43.749Z,99858.78
2023-03-22T22:18:16.988Z,99863.84
2023-03-22T22:20:47.472Z,99859.34
2023-03-22T22:23:20.161Z,99859.34
2023-03-22T22:25:56.169Z,99857.56
2023-03-22T22:28:27.009Z,99862.63
2023-03-22T22:31:00.754Z,99858.34
2023-03-22T22:33:31.656Z,99857.94
2023-03-22T22:36:02.758Z,99859.91
2023-03-22T22:38:33.418Z,99851.56
2023-03-22T22:41:08.526Z,99849.88
2023-03-22T22:43:39.543Z,99839.88
2023-03-22T22:46:10.840Z,99844.09
2023-03-22T22:48:42.859Z,99835.59
2023-03-22T22:51:17.593Z,99836.50
2023-03-22T22:53:48.772Z,99824.31
2023-03-22T22:56:23.185Z,99835.50
2023-03-22T22:58:54.478Z,99826.16
2023-03-22T23:01:25.251Z,99830.34
2023-03-22T23:03:55.903Z,99828.59
2023-03-22T23:06:26.806Z,99826.84
2023-03-22T23:09:01.949Z,99829.38
2023-03-22T23:11:38.006Z,99825.16
2023-03-22T23:14:09.052Z,99821.88
2023-03-22T23:16:40.095Z,99821.88
2023-03-22T23:19:11.312Z,99813.41
2023-03-22T23:21:47.426Z,99798.06
2023-03-22T23:24:18.748Z,99818.38
2023-03-22T23:26:57.079Z,99809.91
2023-03-22T23:29:28.267Z,99808.16
2023-03-22T23:32:01.248Z,99802.31
2023-03-22T23:34:32.280Z,99814.06
2023-03-22T23:37:10.991Z,99806.28
2023-03-22T23:39:41.876Z,99800.34
2023-03-22T23:42:15.796Z,99798.59
2023-03-22T23:44:46.371Z,99786.34
2023-03-22T23:47:16.953Z,99798.38
2023-03-22T23:49:47.584Z,99799.91
2023-03-22T23:52:20.678Z,99807.63
2023-03-22T23:54:51.668Z,99802.16
2023-03-22T23:57:26.188Z,99820.59
2023-03-22T23:59:57.986Z,99813.91
